SCX2135 KMSP-KAFW
Flight info
| Callsign | SCX2135 |
|---|---|
| Flight time | 1h 54m |
| Altitude | 34000 |
| Route | ORSKY3 ONTIJ OVR J21 ICT/N0459F350 J21 IRW FAWNT WESAT3 |
| Aircraft | B738/M-SDE2E3FGHIRWXY/LB1 |
Departure
| Time | 2026-05-08 00:38 |
|---|---|
| Airport | Minneapolis–Saint Paul International Airport / Wold–Chamberlain Field (KMSP) |
Arrival
| Time | 2026-05-08 02:33 |
|---|---|
| Airport | Perot Field/Fort Worth Alliance Airport (KAFW) |
| Time | Latitude | Longitude | Altitude | Speed | Heading |
|---|---|---|---|---|---|
| 2026-05-08 00:23 | 44.87810 | -93.24363 | 824 ft | 3 kts | 80° |
| 2026-05-08 00:24 | 44.87808 | -93.24382 | 824 ft | 1 kts | 80° |
| 2026-05-08 00:24 | 44.87808 | -93.24383 | 824 ft | 0 kts | 80° |
| 2026-05-08 00:27 | 44.87809 | -93.24370 | 824 ft | 5 kts | 80° |
| 2026-05-08 00:27 | 44.87819 | -93.24291 | 820 ft | 10 kts | 80° |
| 2026-05-08 00:28 | 44.87832 | -93.24190 | 823 ft | 11 kts | 79° |
| 2026-05-08 00:28 | 44.87782 | -93.24133 | 824 ft | 11 kts | 168° |
| 2026-05-08 00:28 | 44.87703 | -93.24112 | 824 ft | 12 kts | 169° |
| 2026-05-08 00:28 | 44.87616 | -93.24090 | 824 ft | 10 kts | 169° |
| 2026-05-08 00:29 | 44.87588 | -93.24033 | 823 ft | 8 kts | 84° |
| 2026-05-08 00:29 | 44.87599 | -93.23943 | 824 ft | 11 kts | 80° |
| 2026-05-08 00:29 | 44.87616 | -93.23810 | 821 ft | 17 kts | 80° |
| 2026-05-08 00:29 | 44.87585 | -93.23645 | 824 ft | 17 kts | 111° |
| 2026-05-08 00:30 | 44.87542 | -93.23489 | 825 ft | 17 kts | 111° |
| 2026-05-08 00:30 | 44.87491 | -93.23345 | 825 ft | 16 kts | 134° |
| 2026-05-08 00:30 | 44.87479 | -93.23231 | 823 ft | 13 kts | 47° |
| 2026-05-08 00:30 | 44.87540 | -93.23143 | 824 ft | 12 kts | 45° |
| 2026-05-08 00:31 | 44.87600 | -93.23057 | 824 ft | 12 kts | 45° |
| 2026-05-08 00:31 | 44.87659 | -93.22975 | 824 ft | 12 kts | 44° |
| 2026-05-08 00:31 | 44.87720 | -93.22889 | 821 ft | 14 kts | 45° |
| 2026-05-08 00:31 | 44.87801 | -93.22776 | 824 ft | 19 kts | 45° |
| 2026-05-08 00:32 | 44.87896 | -93.22642 | 825 ft | 19 kts | 46° |
| 2026-05-08 00:32 | 44.87987 | -93.22512 | 824 ft | 18 kts | 45° |
| 2026-05-08 00:32 | 44.88075 | -93.22385 | 825 ft | 18 kts | 45° |
| 2026-05-08 00:32 | 44.88143 | -93.22282 | 823 ft | 9 kts | 64° |
| 2026-05-08 00:33 | 44.88126 | -93.22207 | 822 ft | 8 kts | 118° |
| 2026-05-08 00:33 | 44.88089 | -93.22117 | 822 ft | 14 kts | 122° |
| 2026-05-08 00:33 | 44.88024 | -93.21970 | 822 ft | 20 kts | 121° |
| 2026-05-08 00:33 | 44.87949 | -93.21797 | 824 ft | 20 kts | 121° |
| 2026-05-08 00:34 | 44.87877 | -93.21631 | 822 ft | 20 kts | 121° |
| 2026-05-08 00:34 | 44.87806 | -93.21468 | 824 ft | 19 kts | 122° |
| 2026-05-08 00:34 | 44.87738 | -93.21310 | 822 ft | 19 kts | 121° |
| 2026-05-08 00:34 | 44.87672 | -93.21157 | 824 ft | 18 kts | 121° |
| 2026-05-08 00:35 | 44.87608 | -93.21010 | 824 ft | 17 kts | 121° |
| 2026-05-08 00:35 | 44.87546 | -93.20867 | 823 ft | 17 kts | 121° |
| 2026-05-08 00:35 | 44.87483 | -93.20734 | 824 ft | 16 kts | 132° |
| 2026-05-08 00:35 | 44.87397 | -93.20641 | 824 ft | 15 kts | 140° |
| 2026-05-08 00:36 | 44.87333 | -93.20525 | 824 ft | 15 kts | 120° |
| 2026-05-08 00:36 | 44.87281 | -93.20403 | 822 ft | 14 kts | 122° |
| 2026-05-08 00:36 | 44.87232 | -93.20286 | 824 ft | 13 kts | 108° |
| 2026-05-08 00:36 | 44.87285 | -93.20196 | 825 ft | 13 kts | 30° |
| 2026-05-08 00:37 | 44.87351 | -93.20150 | 826 ft | 8 kts | 3° |
| 2026-05-08 00:37 | 44.87378 | -93.20177 | 824 ft | 3 kts | 301° |
| 2026-05-08 00:37 | 44.87399 | -93.20225 | 823 ft | 11 kts | 302° |
| 2026-05-08 00:38 | 44.87954 | -93.21511 | 820 ft | 141 kts | 302° |
| 2026-05-08 00:38 | 44.88537 | -93.22831 | 1177 ft | 164 kts | 302° |
| 2026-05-08 00:38 | 44.89051 | -93.24252 | 1974 ft | 167 kts | 278° |
| 2026-05-08 00:38 | 44.88979 | -93.25907 | 2761 ft | 170 kts | 262° |
| 2026-05-08 00:39 | 44.88696 | -93.27600 | 3393 ft | 187 kts | 249° |
| 2026-05-08 00:39 | 44.87891 | -93.29078 | 4119 ft | 195 kts | 224° |
| 2026-05-08 00:39 | 44.86732 | -93.30163 | 4745 ft | 204 kts | 212° |
| 2026-05-08 00:39 | 44.85438 | -93.31066 | 5204 ft | 219 kts | 209° |
| 2026-05-08 00:40 | 44.83970 | -93.32008 | 5468 ft | 242 kts | 208° |
| 2026-05-08 00:40 | 44.82375 | -93.33016 | 5844 ft | 263 kts | 208° |
| 2026-05-08 00:40 | 44.80682 | -93.34097 | 6618 ft | 269 kts | 208° |
| 2026-05-08 00:40 | 44.78973 | -93.35201 | 7478 ft | 272 kts | 209° |
| 2026-05-08 00:41 | 44.77248 | -93.36329 | 8345 ft | 275 kts | 209° |
| 2026-05-08 00:41 | 44.75508 | -93.37478 | 9224 ft | 278 kts | 210° |
| 2026-05-08 00:41 | 44.73756 | -93.38640 | 10045 ft | 281 kts | 210° |
| 2026-05-08 00:41 | 44.71968 | -93.39835 | 10488 ft | 299 kts | 211° |
| 2026-05-08 00:42 | 44.70012 | -93.41148 | 10679 ft | 324 kts | 210° |
| 2026-05-08 00:42 | 44.67902 | -93.42560 | 10863 ft | 347 kts | 210° |
| 2026-05-08 00:42 | 44.65663 | -93.44052 | 11211 ft | 363 kts | 210° |
| 2026-05-08 00:42 | 44.63351 | -93.45590 | 11821 ft | 370 kts | 211° |
| 2026-05-08 00:43 | 44.61012 | -93.47149 | 12542 ft | 374 kts | 212° |
| 2026-05-08 00:43 | 44.58710 | -93.48869 | 13230 ft | 377 kts | 215° |
| 2026-05-08 00:43 | 44.56428 | -93.50732 | 13869 ft | 382 kts | 217° |
| 2026-05-08 00:43 | 44.54161 | -93.52622 | 14478 ft | 386 kts | 217° |
| 2026-05-08 00:44 | 44.51840 | -93.54548 | 15106 ft | 390 kts | 217° |
| 2026-05-08 00:44 | 44.49482 | -93.56484 | 15722 ft | 395 kts | 217° |
| 2026-05-08 00:44 | 44.47096 | -93.58426 | 16303 ft | 400 kts | 217° |
| 2026-05-08 00:44 | 44.44674 | -93.60388 | 16886 ft | 404 kts | 217° |
| 2026-05-08 00:45 | 44.42224 | -93.62369 | 17475 ft | 409 kts | 218° |
| 2026-05-08 00:45 | 44.39747 | -93.64369 | 18071 ft | 413 kts | 218° |
| 2026-05-08 00:45 | 44.37253 | -93.66382 | 18588 ft | 416 kts | 218° |
| 2026-05-08 00:45 | 44.34733 | -93.68413 | 19126 ft | 419 kts | 218° |
| 2026-05-08 00:46 | 44.32238 | -93.70422 | 19655 ft | 421 kts | 218° |
| 2026-05-08 00:46 | 44.29692 | -93.72471 | 20173 ft | 424 kts | 218° |
| 2026-05-08 00:46 | 44.27129 | -93.74531 | 20686 ft | 426 kts | 218° |
| 2026-05-08 00:46 | 44.24552 | -93.76602 | 21178 ft | 429 kts | 218° |
| 2026-05-08 00:47 | 44.21954 | -93.78687 | 21674 ft | 432 kts | 218° |
| 2026-05-08 00:47 | 44.19339 | -93.80783 | 22164 ft | 434 kts | 218° |
| 2026-05-08 00:47 | 44.16715 | -93.82883 | 22637 ft | 437 kts | 218° |
| 2026-05-08 00:47 | 44.14071 | -93.84998 | 23110 ft | 439 kts | 218° |
| 2026-05-08 00:48 | 44.11414 | -93.87121 | 23549 ft | 442 kts | 218° |
| 2026-05-08 00:48 | 44.08774 | -93.89228 | 23922 ft | 444 kts | 218° |
| 2026-05-08 00:48 | 44.06091 | -93.91367 | 24286 ft | 446 kts | 218° |
| 2026-05-08 00:48 | 44.03386 | -93.93522 | 24656 ft | 448 kts | 218° |
| 2026-05-08 00:49 | 44.00671 | -93.95681 | 25021 ft | 450 kts | 218° |
| 2026-05-08 00:49 | 43.97949 | -93.97845 | 25375 ft | 452 kts | 218° |
| 2026-05-08 00:49 | 43.95213 | -94.00016 | 25731 ft | 454 kts | 218° |
| 2026-05-08 00:49 | 43.92461 | -94.02199 | 26079 ft | 456 kts | 218° |
| 2026-05-08 00:50 | 43.89701 | -94.04386 | 26415 ft | 458 kts | 217° |
| 2026-05-08 00:50 | 43.86969 | -94.06548 | 26727 ft | 460 kts | 217° |
| 2026-05-08 00:50 | 43.84186 | -94.08749 | 27031 ft | 462 kts | 217° |
| 2026-05-08 00:50 | 43.81390 | -94.10957 | 27333 ft | 464 kts | 217° |
| 2026-05-08 00:51 | 43.78577 | -94.13176 | 27622 ft | 466 kts | 217° |
| 2026-05-08 00:51 | 43.75750 | -94.15404 | 27903 ft | 468 kts | 217° |
| 2026-05-08 00:51 | 43.72923 | -94.17629 | 28251 ft | 468 kts | 217° |
| 2026-05-08 00:51 | 43.70092 | -94.19854 | 28694 ft | 466 kts | 217° |
| 2026-05-08 00:52 | 43.67278 | -94.22062 | 29176 ft | 464 kts | 217° |
| 2026-05-08 00:52 | 43.64512 | -94.24231 | 29595 ft | 463 kts | 217° |
| 2026-05-08 00:52 | 43.61710 | -94.26428 | 29961 ft | 463 kts | 217° |
| 2026-05-08 00:52 | 43.58912 | -94.28620 | 30290 ft | 462 kts | 217° |
| 2026-05-08 00:53 | 43.56124 | -94.30801 | 30673 ft | 460 kts | 217° |
| 2026-05-08 00:53 | 43.53344 | -94.32973 | 31058 ft | 458 kts | 217° |
| 2026-05-08 00:53 | 43.50579 | -94.35133 | 31412 ft | 457 kts | 217° |
| 2026-05-08 00:53 | 43.47815 | -94.37290 | 31747 ft | 456 kts | 217° |
| 2026-05-08 00:54 | 43.45065 | -94.39434 | 32096 ft | 454 kts | 217° |
| 2026-05-08 00:54 | 43.42318 | -94.41574 | 32463 ft | 452 kts | 217° |
| 2026-05-08 00:54 | 43.39624 | -94.43670 | 32823 ft | 450 kts | 217° |
| 2026-05-08 00:54 | 43.36904 | -94.45784 | 33171 ft | 448 kts | 217° |
| 2026-05-08 00:55 | 43.34193 | -94.47891 | 33541 ft | 446 kts | 217° |
| 2026-05-08 00:55 | 43.31496 | -94.49982 | 33862 ft | 445 kts | 217° |
| 2026-05-08 00:55 | 43.28751 | -94.52013 | 33875 ft | 453 kts | 213° |
| 2026-05-08 00:56 | 43.22966 | -94.55533 | 33896 ft | 455 kts | 210° |
| 2026-05-08 00:56 | 43.17212 | -94.58848 | 33902 ft | 449 kts | 210° |
| 2026-05-08 00:57 | 43.11474 | -94.62188 | 33900 ft | 447 kts | 210° |
| 2026-05-08 00:57 | 43.05769 | -94.65548 | 33906 ft | 446 kts | 210° |
| 2026-05-08 00:58 | 43.00078 | -94.68910 | 33913 ft | 445 kts | 210° |
| 2026-05-08 00:58 | 42.94385 | -94.72267 | 33925 ft | 446 kts | 210° |
| 2026-05-08 00:59 | 42.88725 | -94.75597 | 33922 ft | 446 kts | 210° |
| 2026-05-08 00:59 | 42.83017 | -94.78948 | 33921 ft | 447 kts | 210° |
| 2026-05-08 01:00 | 42.77295 | -94.82299 | 33915 ft | 448 kts | 209° |
| 2026-05-08 01:00 | 42.71564 | -94.85649 | 33913 ft | 449 kts | 209° |
| 2026-05-08 01:01 | 42.65869 | -94.88970 | 33904 ft | 449 kts | 209° |
| 2026-05-08 01:01 | 42.60122 | -94.92315 | 33903 ft | 449 kts | 209° |
| 2026-05-08 01:02 | 42.54375 | -94.95653 | 33898 ft | 449 kts | 209° |
| 2026-05-08 01:02 | 42.48633 | -94.98982 | 33895 ft | 449 kts | 208° |
| 2026-05-08 01:03 | 42.42929 | -95.02282 | 33899 ft | 448 kts | 208° |
| 2026-05-08 01:03 | 42.37202 | -95.05590 | 33900 ft | 448 kts | 208° |
| 2026-05-08 01:04 | 42.31471 | -95.08892 | 33898 ft | 447 kts | 208° |
| 2026-05-08 01:04 | 42.25752 | -95.12182 | 33900 ft | 446 kts | 208° |
| 2026-05-08 01:05 | 42.20040 | -95.15461 | 33896 ft | 446 kts | 208° |
| 2026-05-08 01:05 | 42.14368 | -95.18710 | 33898 ft | 445 kts | 208° |
| 2026-05-08 01:06 | 42.08666 | -95.21971 | 33897 ft | 445 kts | 208° |
| 2026-05-08 01:06 | 42.02965 | -95.25224 | 33893 ft | 445 kts | 208° |
| 2026-05-08 01:07 | 41.97300 | -95.28451 | 33898 ft | 445 kts | 208° |
| 2026-05-08 01:07 | 41.91604 | -95.31690 | 33893 ft | 445 kts | 208° |
| 2026-05-08 01:08 | 41.85907 | -95.34922 | 33896 ft | 445 kts | 208° |
| 2026-05-08 01:08 | 41.80206 | -95.38150 | 33896 ft | 445 kts | 208° |
| 2026-05-08 01:09 | 41.74514 | -95.41367 | 33882 ft | 445 kts | 208° |
| 2026-05-08 01:09 | 41.68846 | -95.44565 | 33883 ft | 445 kts | 208° |
| 2026-05-08 01:10 | 41.63145 | -95.47774 | 33878 ft | 445 kts | 208° |
| 2026-05-08 01:10 | 41.57441 | -95.50979 | 33878 ft | 445 kts | 208° |
| 2026-05-08 01:11 | 41.51735 | -95.54179 | 33880 ft | 445 kts | 208° |
| 2026-05-08 01:11 | 41.46067 | -95.57353 | 33878 ft | 445 kts | 208° |
| 2026-05-08 01:12 | 41.40356 | -95.60543 | 33869 ft | 445 kts | 209° |
| 2026-05-08 01:12 | 41.34648 | -95.63727 | 33860 ft | 445 kts | 209° |
| 2026-05-08 01:13 | 41.28942 | -95.66902 | 33864 ft | 444 kts | 209° |
| 2026-05-08 01:13 | 41.23280 | -95.70049 | 33866 ft | 444 kts | 209° |
| 2026-05-08 01:14 | 41.17587 | -95.73207 | 33869 ft | 444 kts | 209° |
| 2026-05-08 01:14 | 41.11906 | -95.76397 | 33862 ft | 443 kts | 210° |
| 2026-05-08 01:15 | 41.06245 | -95.79625 | 33858 ft | 443 kts | 210° |
| 2026-05-08 01:15 | 41.00621 | -95.82827 | 33871 ft | 443 kts | 210° |
| 2026-05-08 01:16 | 40.94965 | -95.86035 | 33874 ft | 442 kts | 210° |
| 2026-05-08 01:16 | 40.89307 | -95.89234 | 33878 ft | 442 kts | 210° |
| 2026-05-08 01:17 | 40.83654 | -95.92424 | 33877 ft | 442 kts | 210° |
| 2026-05-08 01:17 | 40.78001 | -95.95608 | 33878 ft | 442 kts | 210° |
| 2026-05-08 01:18 | 40.72379 | -95.98768 | 33871 ft | 442 kts | 210° |
| 2026-05-08 01:18 | 40.66731 | -96.01937 | 33873 ft | 441 kts | 210° |
| 2026-05-08 01:19 | 40.61084 | -96.05099 | 33869 ft | 440 kts | 210° |
| 2026-05-08 01:19 | 40.55453 | -96.08247 | 33868 ft | 439 kts | 210° |
| 2026-05-08 01:20 | 40.49872 | -96.11361 | 33867 ft | 438 kts | 210° |
| 2026-05-08 01:20 | 40.44275 | -96.14478 | 33862 ft | 436 kts | 210° |
| 2026-05-08 01:21 | 40.38700 | -96.17578 | 33863 ft | 434 kts | 210° |
| 2026-05-08 01:21 | 40.33143 | -96.20663 | 33848 ft | 433 kts | 210° |
| 2026-05-08 01:22 | 40.27605 | -96.23731 | 33853 ft | 431 kts | 210° |
| 2026-05-08 01:22 | 40.22120 | -96.26764 | 33853 ft | 430 kts | 210° |
| 2026-05-08 01:23 | 40.16622 | -96.29799 | 33861 ft | 428 kts | 210° |
| 2026-05-08 01:23 | 40.11135 | -96.32824 | 33850 ft | 427 kts | 210° |
| 2026-05-08 01:24 | 40.05661 | -96.35835 | 33858 ft | 427 kts | 210° |
| 2026-05-08 01:24 | 40.00231 | -96.38818 | 33867 ft | 426 kts | 211° |
| 2026-05-08 01:25 | 39.94769 | -96.41813 | 33863 ft | 426 kts | 211° |
| 2026-05-08 01:25 | 39.89299 | -96.44807 | 33866 ft | 426 kts | 211° |
| 2026-05-08 01:26 | 39.83834 | -96.47793 | 33859 ft | 426 kts | 211° |
| 2026-05-08 01:26 | 39.78415 | -96.50748 | 33869 ft | 425 kts | 211° |
| 2026-05-08 01:27 | 39.72956 | -96.53720 | 33871 ft | 425 kts | 211° |
| 2026-05-08 01:27 | 39.67502 | -96.56684 | 33869 ft | 425 kts | 211° |
| 2026-05-08 01:28 | 39.62050 | -96.59643 | 33867 ft | 424 kts | 211° |
| 2026-05-08 01:28 | 39.56648 | -96.62568 | 33862 ft | 423 kts | 211° |
| 2026-05-08 01:29 | 39.51214 | -96.65507 | 33853 ft | 423 kts | 211° |
| 2026-05-08 01:29 | 39.45794 | -96.68432 | 33854 ft | 422 kts | 211° |
| 2026-05-08 01:30 | 39.40381 | -96.71350 | 33854 ft | 421 kts | 211° |
| 2026-05-08 01:30 | 39.35015 | -96.74237 | 33856 ft | 420 kts | 211° |
| 2026-05-08 01:31 | 39.29621 | -96.77135 | 33853 ft | 420 kts | 211° |
| 2026-05-08 01:31 | 39.24233 | -96.80025 | 33856 ft | 420 kts | 211° |
| 2026-05-08 01:32 | 39.18839 | -96.82912 | 33848 ft | 419 kts | 211° |
| 2026-05-08 01:32 | 39.13488 | -96.85773 | 33845 ft | 419 kts | 211° |
| 2026-05-08 01:33 | 39.08102 | -96.88648 | 33847 ft | 419 kts | 211° |
| 2026-05-08 01:33 | 39.02713 | -96.91519 | 33849 ft | 419 kts | 211° |
| 2026-05-08 01:34 | 38.97320 | -96.94394 | 33843 ft | 419 kts | 211° |
| 2026-05-08 01:34 | 38.91963 | -96.97254 | 33851 ft | 420 kts | 211° |
| 2026-05-08 01:35 | 38.86564 | -97.00132 | 33845 ft | 420 kts | 211° |
| 2026-05-08 01:35 | 38.81163 | -97.03006 | 33850 ft | 420 kts | 211° |
| 2026-05-08 01:36 | 38.75756 | -97.05877 | 33856 ft | 421 kts | 211° |
| 2026-05-08 01:36 | 38.70380 | -97.08728 | 33860 ft | 421 kts | 211° |
| 2026-05-08 01:37 | 38.64960 | -97.11598 | 33863 ft | 422 kts | 211° |
| 2026-05-08 01:37 | 38.59533 | -97.14466 | 33866 ft | 422 kts | 211° |
| 2026-05-08 01:38 | 38.54100 | -97.17333 | 33867 ft | 423 kts | 211° |
| 2026-05-08 01:38 | 38.48695 | -97.20181 | 33873 ft | 423 kts | 211° |
| 2026-05-08 01:39 | 38.43253 | -97.23042 | 33866 ft | 423 kts | 211° |
| 2026-05-08 01:39 | 38.37788 | -97.25853 | 33876 ft | 424 kts | 210° |
| 2026-05-08 01:40 | 38.32316 | -97.28649 | 33887 ft | 423 kts | 210° |
| 2026-05-08 01:40 | 38.26887 | -97.31425 | 33892 ft | 423 kts | 210° |
| 2026-05-08 01:41 | 38.21423 | -97.34220 | 33897 ft | 423 kts | 210° |
| 2026-05-08 01:41 | 38.15971 | -97.37003 | 33900 ft | 423 kts | 210° |
| 2026-05-08 01:42 | 38.10520 | -97.39807 | 33902 ft | 422 kts | 211° |
| 2026-05-08 01:42 | 38.05081 | -97.42631 | 33897 ft | 422 kts | 211° |
| 2026-05-08 01:43 | 37.99682 | -97.45429 | 33894 ft | 422 kts | 210° |
| 2026-05-08 01:43 | 37.94242 | -97.48239 | 33894 ft | 422 kts | 210° |
| 2026-05-08 01:44 | 37.88798 | -97.51047 | 33896 ft | 422 kts | 210° |
| 2026-05-08 01:44 | 37.83391 | -97.53831 | 33902 ft | 422 kts | 210° |
| 2026-05-08 01:45 | 37.77946 | -97.56629 | 33900 ft | 423 kts | 210° |
| 2026-05-08 01:45 | 37.72141 | -97.58455 | 33900 ft | 440 kts | 194° |
| 2026-05-08 01:46 | 37.65941 | -97.58625 | 33898 ft | 448 kts | 189° |
| 2026-05-08 01:46 | 37.59706 | -97.58615 | 33904 ft | 448 kts | 189° |
| 2026-05-08 01:47 | 37.53527 | -97.58635 | 33901 ft | 447 kts | 189° |
| 2026-05-08 01:47 | 37.47308 | -97.58688 | 33901 ft | 446 kts | 189° |
| 2026-05-08 01:48 | 37.38003 | -97.58788 | 33936 ft | 445 kts | 189° |
| 2026-05-08 01:48 | 37.31806 | -97.58856 | 33937 ft | 445 kts | 189° |
| 2026-05-08 01:49 | 37.26668 | -97.58911 | 33934 ft | 444 kts | 189° |
| 2026-05-08 01:49 | 37.19501 | -97.58988 | 33933 ft | 443 kts | 189° |
| 2026-05-08 01:50 | 37.13301 | -97.59057 | 34288 ft | 444 kts | 189° |
| 2026-05-08 01:50 | 37.10221 | -97.59087 | 34655 ft | 440 kts | 190° |
| 2026-05-08 01:50 | 37.07167 | -97.59115 | 34906 ft | 438 kts | 190° |
| 2026-05-08 01:51 | 37.01127 | -97.59178 | 34910 ft | 436 kts | 190° |
| 2026-05-08 01:51 | 36.95078 | -97.59243 | 34923 ft | 434 kts | 191° |
| 2026-05-08 01:52 | 36.89051 | -97.59309 | 34932 ft | 433 kts | 191° |
| 2026-05-08 01:52 | 36.83034 | -97.59373 | 34938 ft | 432 kts | 191° |
| 2026-05-08 01:53 | 36.77080 | -97.59436 | 34942 ft | 431 kts | 191° |
| 2026-05-08 01:53 | 36.71092 | -97.59500 | 34942 ft | 430 kts | 191° |
| 2026-05-08 01:54 | 36.65112 | -97.59563 | 34941 ft | 429 kts | 192° |
| 2026-05-08 01:54 | 36.59145 | -97.59625 | 34934 ft | 428 kts | 192° |
| 2026-05-08 01:55 | 36.53233 | -97.59687 | 34945 ft | 427 kts | 192° |
| 2026-05-08 01:55 | 36.47298 | -97.59749 | 34951 ft | 426 kts | 192° |
| 2026-05-08 01:56 | 36.41377 | -97.59811 | 34956 ft | 425 kts | 192° |
| 2026-05-08 01:56 | 36.35462 | -97.59872 | 34955 ft | 424 kts | 192° |
| 2026-05-08 01:57 | 36.29610 | -97.59933 | 34955 ft | 423 kts | 192° |
| 2026-05-08 01:57 | 36.23728 | -97.59995 | 34952 ft | 422 kts | 192° |
| 2026-05-08 01:58 | 36.17861 | -97.60056 | 34958 ft | 421 kts | 192° |
| 2026-05-08 01:58 | 36.12001 | -97.60117 | 34944 ft | 421 kts | 192° |
| 2026-05-08 01:59 | 36.06158 | -97.60178 | 34954 ft | 420 kts | 193° |
| 2026-05-08 01:59 | 36.00360 | -97.60237 | 34960 ft | 419 kts | 193° |
| 2026-05-08 02:00 | 35.94536 | -97.60297 | 34964 ft | 418 kts | 193° |
| 2026-05-08 02:00 | 35.88725 | -97.60357 | 34970 ft | 417 kts | 193° |
| 2026-05-08 02:01 | 35.82928 | -97.60417 | 34970 ft | 416 kts | 193° |
| 2026-05-08 02:01 | 35.77176 | -97.60476 | 34983 ft | 416 kts | 193° |
| 2026-05-08 02:02 | 35.71395 | -97.60536 | 34989 ft | 415 kts | 193° |
| 2026-05-08 02:02 | 35.65620 | -97.60596 | 34996 ft | 415 kts | 193° |
| 2026-05-08 02:03 | 35.59849 | -97.60655 | 35007 ft | 414 kts | 193° |
| 2026-05-08 02:03 | 35.54082 | -97.60714 | 35004 ft | 414 kts | 193° |
| 2026-05-08 02:04 | 35.48361 | -97.60773 | 35010 ft | 414 kts | 193° |
| 2026-05-08 02:04 | 35.42602 | -97.60832 | 35013 ft | 414 kts | 193° |
| 2026-05-08 02:05 | 35.36845 | -97.60890 | 35015 ft | 414 kts | 193° |
| 2026-05-08 02:05 | 35.31070 | -97.60828 | 35019 ft | 417 kts | 191° |
| 2026-05-08 02:06 | 35.25312 | -97.60622 | 34994 ft | 417 kts | 191° |
| 2026-05-08 02:06 | 35.19521 | -97.60416 | 34998 ft | 416 kts | 191° |
| 2026-05-08 02:07 | 35.13734 | -97.60230 | 34993 ft | 415 kts | 192° |
| 2026-05-08 02:07 | 35.07964 | -97.60054 | 34995 ft | 415 kts | 192° |
| 2026-05-08 02:08 | 35.02239 | -97.59881 | 34996 ft | 413 kts | 192° |
| 2026-05-08 02:08 | 34.96499 | -97.59709 | 35005 ft | 412 kts | 192° |
| 2026-05-08 02:09 | 34.90764 | -97.59537 | 35004 ft | 412 kts | 192° |
| 2026-05-08 02:09 | 34.85047 | -97.59366 | 35018 ft | 410 kts | 192° |
| 2026-05-08 02:10 | 34.79384 | -97.59196 | 35026 ft | 409 kts | 192° |
| 2026-05-08 02:10 | 34.73699 | -97.59027 | 35030 ft | 408 kts | 192° |
| 2026-05-08 02:11 | 34.67995 | -97.58862 | 34589 ft | 414 kts | 192° |
| 2026-05-08 02:11 | 34.65121 | -97.58778 | 34000 ft | 413 kts | 192° |
| 2026-05-08 02:11 | 34.62246 | -97.58691 | 33281 ft | 413 kts | 191° |
| 2026-05-08 02:12 | 34.59370 | -97.58604 | 32565 ft | 414 kts | 191° |
| 2026-05-08 02:12 | 34.57463 | -97.58547 | 32083 ft | 414 kts | 191° |
| 2026-05-08 02:12 | 34.53658 | -97.58432 | 31267 ft | 411 kts | 191° |
| 2026-05-08 02:12 | 34.50803 | -97.58344 | 30736 ft | 412 kts | 191° |
| 2026-05-08 02:13 | 34.47901 | -97.58266 | 30223 ft | 424 kts | 191° |
| 2026-05-08 02:13 | 34.44940 | -97.58187 | 29597 ft | 425 kts | 191° |
| 2026-05-08 02:13 | 34.41999 | -97.58094 | 29004 ft | 420 kts | 190° |
| 2026-05-08 02:13 | 34.39090 | -97.57999 | 28453 ft | 416 kts | 190° |
| 2026-05-08 02:14 | 34.36213 | -97.57908 | 27913 ft | 412 kts | 190° |
| 2026-05-08 02:14 | 34.33390 | -97.57823 | 27393 ft | 409 kts | 190° |
| 2026-05-08 02:14 | 34.30562 | -97.57740 | 26867 ft | 406 kts | 189° |
| 2026-05-08 02:14 | 34.27721 | -97.57663 | 26342 ft | 412 kts | 189° |
| 2026-05-08 02:15 | 34.24833 | -97.57584 | 25778 ft | 416 kts | 188° |
| 2026-05-08 02:15 | 34.21948 | -97.57497 | 25229 ft | 414 kts | 188° |
| 2026-05-08 02:15 | 34.19082 | -97.57469 | 24679 ft | 408 kts | 192° |
| 2026-05-08 02:15 | 34.18132 | -97.57546 | 24486 ft | 404 kts | 195° |
| 2026-05-08 02:16 | 34.13602 | -97.58566 | 23429 ft | 399 kts | 200° |
| 2026-05-08 02:16 | 34.10885 | -97.59267 | 22779 ft | 398 kts | 200° |
| 2026-05-08 02:16 | 34.08229 | -97.59948 | 22299 ft | 393 kts | 199° |
| 2026-05-08 02:16 | 34.05567 | -97.60620 | 21836 ft | 389 kts | 199° |
| 2026-05-08 02:17 | 34.02934 | -97.61277 | 21321 ft | 385 kts | 199° |
| 2026-05-08 02:17 | 34.00315 | -97.61926 | 20805 ft | 383 kts | 198° |
| 2026-05-08 02:17 | 33.97716 | -97.62565 | 20317 ft | 380 kts | 198° |
| 2026-05-08 02:17 | 33.95138 | -97.63197 | 19850 ft | 376 kts | 198° |
| 2026-05-08 02:18 | 33.92584 | -97.63822 | 19393 ft | 373 kts | 198° |
| 2026-05-08 02:18 | 33.90052 | -97.64441 | 18935 ft | 370 kts | 198° |
| 2026-05-08 02:18 | 33.87576 | -97.65046 | 18495 ft | 367 kts | 197° |
| 2026-05-08 02:18 | 33.85081 | -97.65655 | 18025 ft | 363 kts | 197° |
| 2026-05-08 02:19 | 33.82613 | -97.66257 | 17526 ft | 360 kts | 197° |
| 2026-05-08 02:19 | 33.80167 | -97.66854 | 17017 ft | 358 kts | 197° |
| 2026-05-08 02:19 | 33.77735 | -97.67447 | 16513 ft | 356 kts | 197° |
| 2026-05-08 02:19 | 33.75316 | -97.68037 | 16002 ft | 354 kts | 197° |
| 2026-05-08 02:20 | 33.72908 | -97.68624 | 15534 ft | 352 kts | 197° |
| 2026-05-08 02:20 | 33.70531 | -97.69201 | 14975 ft | 346 kts | 197° |
| 2026-05-08 02:20 | 33.68170 | -97.69776 | 14245 ft | 346 kts | 197° |
| 2026-05-08 02:20 | 33.65808 | -97.70352 | 13501 ft | 347 kts | 197° |
| 2026-05-08 02:21 | 33.63463 | -97.70922 | 12951 ft | 340 kts | 196° |
| 2026-05-08 02:21 | 33.61204 | -97.71468 | 12485 ft | 332 kts | 196° |
| 2026-05-08 02:21 | 33.58947 | -97.72015 | 12042 ft | 329 kts | 196° |
| 2026-05-08 02:21 | 33.56707 | -97.72562 | 11635 ft | 330 kts | 196° |
| 2026-05-08 02:22 | 33.54439 | -97.73120 | 11210 ft | 335 kts | 195° |
| 2026-05-08 02:22 | 33.52148 | -97.73660 | 10818 ft | 335 kts | 191° |
| 2026-05-08 02:22 | 33.49864 | -97.73409 | 10717 ft | 328 kts | 166° |
| 2026-05-08 02:22 | 33.47845 | -97.72261 | 10623 ft | 317 kts | 150° |
| 2026-05-08 02:23 | 33.46194 | -97.70573 | 10519 ft | 307 kts | 138° |
| 2026-05-08 02:23 | 33.44754 | -97.68752 | 10378 ft | 296 kts | 136° |
| 2026-05-08 02:23 | 33.43390 | -97.66963 | 10042 ft | 294 kts | 136° |
| 2026-05-08 02:23 | 33.42019 | -97.65161 | 9639 ft | 293 kts | 136° |
| 2026-05-08 02:24 | 33.40648 | -97.63369 | 9252 ft | 290 kts | 136° |
| 2026-05-08 02:24 | 33.39287 | -97.61601 | 8891 ft | 287 kts | 136° |
| 2026-05-08 02:24 | 33.37936 | -97.59856 | 8528 ft | 285 kts | 136° |
| 2026-05-08 02:24 | 33.36592 | -97.58125 | 8149 ft | 283 kts | 136° |
| 2026-05-08 02:25 | 33.35264 | -97.56416 | 7846 ft | 279 kts | 136° |
| 2026-05-08 02:25 | 33.33959 | -97.54744 | 7434 ft | 278 kts | 136° |
| 2026-05-08 02:25 | 33.32639 | -97.53052 | 7028 ft | 277 kts | 135° |
| 2026-05-08 02:25 | 33.31327 | -97.51373 | 6642 ft | 275 kts | 135° |
| 2026-05-08 02:26 | 33.30122 | -97.49831 | 6299 ft | 273 kts | 135° |
| 2026-05-08 02:26 | 33.28881 | -97.48245 | 5947 ft | 269 kts | 135° |
| 2026-05-08 02:26 | 33.27612 | -97.46623 | 5568 ft | 265 kts | 134° |
| 2026-05-08 02:26 | 33.26360 | -97.45023 | 5200 ft | 261 kts | 134° |
| 2026-05-08 02:27 | 33.25160 | -97.43489 | 5123 ft | 243 kts | 134° |
| 2026-05-08 02:27 | 33.24046 | -97.42066 | 4976 ft | 229 kts | 133° |
| 2026-05-08 02:27 | 33.22989 | -97.40719 | 4664 ft | 222 kts | 133° |
| 2026-05-08 02:27 | 33.21943 | -97.39386 | 4425 ft | 215 kts | 133° |
| 2026-05-08 02:28 | 33.20916 | -97.38078 | 4271 ft | 216 kts | 133° |
| 2026-05-08 02:28 | 33.19874 | -97.36776 | 4185 ft | 219 kts | 139° |
| 2026-05-08 02:28 | 33.18517 | -97.36019 | 4030 ft | 215 kts | 169° |
| 2026-05-08 02:28 | 33.17071 | -97.35734 | 3819 ft | 207 kts | 170° |
| 2026-05-08 02:29 | 33.15681 | -97.35460 | 3600 ft | 199 kts | 170° |
| 2026-05-08 02:29 | 33.14338 | -97.35185 | 3396 ft | 191 kts | 170° |
| 2026-05-08 02:29 | 33.13053 | -97.34920 | 3234 ft | 187 kts | 169° |
| 2026-05-08 02:29 | 33.11794 | -97.34661 | 2986 ft | 181 kts | 170° |
| 2026-05-08 02:30 | 33.10591 | -97.34414 | 2755 ft | 169 kts | 169° |
| 2026-05-08 02:30 | 33.09478 | -97.34185 | 2567 ft | 155 kts | 170° |
| 2026-05-08 02:30 | 33.08450 | -97.33974 | 2349 ft | 145 kts | 169° |
| 2026-05-08 02:30 | 33.07463 | -97.33771 | 2152 ft | 143 kts | 170° |
| 2026-05-08 02:31 | 33.06482 | -97.33571 | 1992 ft | 141 kts | 170° |
| 2026-05-08 02:31 | 33.05514 | -97.33369 | 1751 ft | 142 kts | 169° |
| 2026-05-08 02:31 | 33.04535 | -97.33166 | 1533 ft | 143 kts | 171° |
| 2026-05-08 02:31 | 33.03553 | -97.32967 | 1357 ft | 143 kts | 171° |
| 2026-05-08 02:32 | 33.02565 | -97.32773 | 1167 ft | 145 kts | 171° |
| 2026-05-08 02:32 | 33.01587 | -97.32566 | 963 ft | 145 kts | 171° |
| 2026-05-08 02:32 | 33.00597 | -97.32364 | 761 ft | 143 kts | 170° |
| 2026-05-08 02:32 | 32.99657 | -97.32174 | 686 ft | 125 kts | 169° |
| 2026-05-08 02:33 | 32.99013 | -97.32039 | 687 ft | 63 kts | 170° |
| 2026-05-08 02:33 | 32.98724 | -97.31981 | 685 ft | 35 kts | 170° |
| 2026-05-08 02:33 | 32.98550 | -97.31948 | 687 ft | 16 kts | 180° |
| 2026-05-08 02:33 | 32.98498 | -97.32024 | 683 ft | 12 kts | 264° |
| 2026-05-08 02:34 | 32.98520 | -97.32071 | 687 ft | 7 kts | 347° |
| 2026-05-08 02:34 | 32.98565 | -97.32080 | 685 ft | 7 kts | 350° |
| 2026-05-08 02:34 | 32.98628 | -97.32104 | 688 ft | 12 kts | 313° |
| 2026-05-08 02:34 | 32.98626 | -97.32198 | 687 ft | 11 kts | 261° |
| 2026-05-08 02:35 | 32.98591 | -97.32218 | 685 ft | 6 kts | 174° |
| 2026-05-08 02:35 | 32.98548 | -97.32209 | 690 ft | 7 kts | 168° |
| 2026-05-08 02:35 | 32.98489 | -97.32197 | 685 ft | 10 kts | 170° |
| 2026-05-08 02:35 | 32.98419 | -97.32182 | 687 ft | 8 kts | 170° |
| 2026-05-08 02:36 | 32.98389 | -97.32213 | 688 ft | 6 kts | 256° |
| 2026-05-08 02:36 | 32.98383 | -97.32250 | 682 ft | 3 kts | 258° |
| 2026-05-08 02:36 | 32.98382 | -97.32252 | 683 ft | 0 kts | 258° |